Time;durP1;ratioP1;P1;durP2;ratioP2;P2;SDS_P1;SDS_P2;PMS_P1;PMS_P2;Temp;Humidity;BMP_temperature;BMP_pressure;BME280_temperature;BME280_humidity;BME280_pressure;Samples;Min_cycle;Max_cycle;Signal;HPM_P1;HPM_P2
2022/07/12 00:00:55;;;;;;;;;8.50;8.25;;;28.72;97896.52;;;;119261;1187;25118;-69
2022/07/12 00:03:23;;;;;;;;;10.75;10.00;;;28.71;97901.23;;;;119035;1188;25053;-69
2022/07/12 00:05:51;;;;;;;;;11.67;10.00;;;28.73;97901.55;;;;119286;1187;24771;-69
2022/07/12 00:08:19;;;;;;;;;11.00;10.00;;;28.72;97900.71;;;;119263;1186;24765;-67
2022/07/12 00:10:47;;;;;;;;;9.00;9.00;;;28.70;97900.96;;;;119258;1187;25414;-68
2022/07/12 00:13:15;;;;;;;;;8.75;8.50;;;28.70;97899.36;;;;119232;1187;25276;-68
2022/07/12 00:15:44;;;;;;;;;9.50;9.00;;;28.68;97893.89;;;;119268;1187;25467;-70
2022/07/12 00:18:12;;;;;;;;;9.75;8.25;;;28.67;97892.16;;;;119294;1187;25551;-69
2022/07/12 00:20:40;;;;;;;;;8.75;8.75;;;28.67;97890.80;;;;119250;1187;25613;-67
2022/07/12 00:23:07;;;;;;;;;9.00;8.25;;;28.66;97894.45;;;;119278;1187;25164;-68
2022/07/12 00:25:35;;;;;;;;;9.75;8.50;;;28.66;97898.18;;;;119262;1187;24840;-68
2022/07/12 00:28:04;;;;;;;;;7.50;6.00;;;28.65;97893.66;;;;119270;1188;25716;-69
2022/07/12 00:30:31;;;;;;;;;8.00;7.25;;;28.64;97892.33;;;;119281;1187;25585;-69
2022/07/12 00:32:59;;;;;;;;;8.25;7.25;;;28.66;97894.96;;;;119273;1187;25416;-68
2022/07/12 00:35:27;;;;;;;;;7.25;6.25;;;28.64;97899.75;;;;119270;1186;25307;-68
2022/07/12 00:37:55;;;;;;;;;8.75;8.75;;;28.64;97903.10;;;;119273;1187;24735;-69
2022/07/12 00:40:23;;;;;;;;;6.00;5.00;;;28.63;97907.79;;;;119264;1186;24897;-69
2022/07/12 00:42:51;;;;;;;;;7.25;7.25;;;28.61;97907.21;;;;119253;1187;24736;-69
2022/07/12 00:45:19;;;;;;;;;7.50;7.50;;;28.61;97911.56;;;;119272;1186;26569;-68
2022/07/12 00:47:50;;;;;;;;;7.25;7.25;;;28.61;97913.30;;;;119255;1186;25317;-69
2022/07/12 00:50:22;;;;;;;;;8.25;7.75;;;28.60;97916.52;;;;119281;1186;26129;-69
2022/07/12 00:52:52;;;;;;;;;6.33;6.33;;;28.61;97923.06;;;;119149;1187;24994;-69
2022/07/12 00:55:22;;;;;;;;;5.75;5.25;;;28.62;97921.34;;;;119261;1187;24911;-68
2022/07/12 00:57:50;;;;;;;;;7.25;6.00;;;28.62;97917.77;;;;119265;1187;25691;-69
2022/07/12 01:00:23;;;;;;;;;5.00;5.00;;;28.60;97923.59;;;;119275;1187;26270;-68
2022/07/12 01:02:53;;;;;;;;;5.33;5.33;;;28.62;97923.77;;;;119285;1187;24758;-68
2022/07/12 01:05:23;;;;;;;;;5.25;4.50;;;28.64;97920.73;;;;119219;1186;25712;-68
2022/07/12 01:07:51;;;;;;;;;5.25;4.00;;;28.62;97925.17;;;;119264;1188;24922;-69
2022/07/12 01:10:19;;;;;;;;;6.00;4.50;;;28.62;97927.41;;;;119032;1187;25838;-69
2022/07/12 01:12:47;;;;;;;;;7.25;6.00;;;28.60;97928.29;;;;119253;1187;24872;-69
2022/07/12 01:15:16;;;;;;;;;9.25;7.00;;;28.59;97926.98;;;;119279;1186;25651;-68
2022/07/12 01:17:44;;;;;;;;;4.00;3.50;;;28.58;97927.61;;;;119267;1187;25361;-69
2022/07/12 01:20:19;;;;;;;;;4.50;4.50;;;28.59;97931.90;;;;119035;1188;25742;-67
2022/07/12 01:22:53;;;;;;;;;4.00;4.00;;;28.59;97932.01;;;;119253;1186;25013;-69
2022/07/12 01:25:22;;;;;;;;;3.50;3.50;;;28.59;97929.20;;;;119258;1186;26571;-68
2022/07/12 01:27:50;;;;;;;;;4.75;3.50;;;28.57;97926.60;;;;119265;1188;25167;-69
2022/07/12 01:30:19;;;;;;;;;5.50;5.50;;;28.55;97927.31;;;;119268;1187;25100;-69
2022/07/12 01:32:47;;;;;;;;;6.00;4.75;;;28.54;97929.08;;;;119268;1187;25281;-69
2022/07/12 01:35:15;;;;;;;;;2.50;2.50;;;28.56;97926.75;;;;119064;1187;26336;-68
2022/07/12 01:37:43;;;;;;;;;5.00;4.25;;;28.57;97927.79;;;;119264;1187;25618;-68
2022/07/12 01:40:13;;;;;;;;;4.00;4.00;;;28.55;97927.36;;;;119264;1188;25706;-69
2022/07/12 01:42:43;;;;;;;;;5.75;4.00;;;28.54;97934.70;;;;119226;1187;26348;-68
2022/07/12 01:45:12;;;;;;;;;6.00;4.50;;;28.53;97936.52;;;;119237;1186;25322;-70
2022/07/12 01:47:40;;;;;;;;;3.50;2.00;;;28.54;97939.11;;;;119291;1187;25265;-69
2022/07/12 01:50:10;;;;;;;;;4.25;3.25;;;28.53;97936.08;;;;119272;1187;25695;-69
2022/07/12 01:52:41;;;;;;;;;4.25;3.25;;;28.52;97940.56;;;;119266;1186;25108;-67
2022/07/12 01:55:10;;;;;;;;;5.50;4.00;;;28.53;97940.86;;;;119277;1186;25490;-68
2022/07/12 01:57:41;;;;;;;;;4.25;4.25;;;28.53;97940.81;;;;119041;1188;25014;-68
2022/07/12 02:00:10;;;;;;;;;6.25;4.00;;;28.53;97935.73;;;;119245;1187;25557;-68
2022/07/12 02:02:38;;;;;;;;;3.00;1.00;;;28.52;97930.27;;;;119250;1187;26198;-68
2022/07/12 02:05:06;;;;;;;;;6.50;5.00;;;28.50;97926.62;;;;119037;1188;26503;-68
2022/07/12 02:07:35;;;;;;;;;3.00;3.00;;;28.50;97921.82;;;;119013;1189;26050;-68
2022/07/12 02:10:06;;;;;;;;;3.50;3.00;;;28.50;97927.29;;;;119254;1187;25674;-68
2022/07/12 02:12:36;;;;;;;;;2.00;2.00;;;28.48;97927.49;;;;119114;1187;24889;-68
2022/07/12 02:15:08;;;;;;;;;3.75;3.00;;;28.48;97924.11;;;;119261;1187;25536;-68
2022/07/12 02:17:36;;;;;;;;;3.00;3.00;;;28.50;97929.18;;;;119221;1187;25433;-68
2022/07/12 02:20:05;;;;;;;;;3.33;3.33;;;28.48;97927.35;;;;119240;1187;25510;-68
2022/07/12 02:22:34;;;;;;;;;2.75;1.25;;;28.49;97929.25;;;;119260;1187;24670;-68
2022/07/12 02:25:03;;;;;;;;;2.75;2.75;;;28.48;97931.22;;;;119221;1187;25622;-68
2022/07/12 02:27:31;;;;;;;;;2.00;2.00;;;28.48;97931.79;;;;119232;1187;25231;-69
2022/07/12 02:29:58;;;;;;;;;2.50;2.50;;;28.46;97928.24;;;;119269;1187;25161;-70
2022/07/12 02:32:27;;;;;;;;;3.25;2.00;;;28.45;97927.91;;;;119008;1189;25497;-68
2022/07/12 02:34:55;;;;;;;;;3.25;2.75;;;28.44;97934.29;;;;119258;1187;25680;-68
2022/07/12 02:37:23;;;;;;;;;3.00;2.25;;;28.43;97934.65;;;;119250;1187;25438;-70
2022/07/12 02:39:51;;;;;;;;;4.00;4.00;;;28.43;97933.97;;;;119283;1187;25430;-68
2022/07/12 02:42:19;;;;;;;;;3.50;3.50;;;28.42;97933.52;;;;119234;1187;25633;-69
2022/07/12 02:44:47;;;;;;;;;3.00;2.25;;;28.40;97930.88;;;;119262;1187;25746;-69
2022/07/12 02:47:15;;;;;;;;;2.00;2.00;;;28.38;97932.42;;;;119242;1187;25766;-69
2022/07/12 02:49:43;;;;;;;;;3.00;3.00;;;28.37;97932.79;;;;119261;1188;25656;-68
2022/07/12 02:52:10;;;;;;;;;2.00;2.00;;;28.37;97933.64;;;;119260;1188;25262;-69
2022/07/12 02:54:39;;;;;;;;;2.50;2.50;;;28.36;97933.78;;;;119231;1188;24720;-68
2022/07/12 02:57:06;;;;;;;;;2.00;2.00;;;28.36;97936.09;;;;119227;1187;25805;-68
2022/07/12 02:59:34;;;;;;;;;4.50;3.00;;;28.36;97938.88;;;;119270;1186;26317;-67
2022/07/12 03:02:03;;;;;;;;;3.00;3.00;;;28.36;97941.99;;;;119261;1186;24782;-66
2022/07/12 03:04:30;;;;;;;;;2.00;2.00;;;28.38;97941.14;;;;119262;1188;26316;-67
2022/07/12 03:06:58;;;;;;;;;3.50;2.00;;;28.38;97944.60;;;;119012;1189;26203;-67
2022/07/12 03:09:26;;;;;;;;;1.50;1.50;;;28.37;97951.48;;;;119277;1187;24700;-67
2022/07/12 03:11:54;;;;;;;;;2.50;2.50;;;28.37;97953.11;;;;119269;1187;26436;-71
2022/07/12 03:14:21;;;;;;;;;3.50;3.00;;;28.37;97954.77;;;;119237;1187;25488;-69
2022/07/12 03:16:49;;;;;;;;;4.25;4.00;;;28.37;97954.34;;;;119062;1188;25174;-70
2022/07/12 03:19:17;;;;;;;;;2.75;2.75;;;28.38;97952.16;;;;119258;1187;24935;-69
2022/07/12 03:21:45;;;;;;;;;3.00;2.25;;;28.38;97951.65;;;;119267;1186;25293;-70
2022/07/12 03:24:12;;;;;;;;;3.00;3.00;;;28.37;97958.25;;;;119237;1187;25295;-69
2022/07/12 03:26:40;;;;;;;;;2.67;2.00;;;28.35;97960.36;;;;119286;1187;24922;-70
2022/07/12 03:29:08;;;;;;;;;3.00;3.00;;;28.32;97958.58;;;;119238;1187;25674;-70
2022/07/12 03:31:36;;;;;;;;;4.25;4.00;;;28.30;97956.82;;;;119248;1187;25794;-70
2022/07/12 03:34:04;;;;;;;;;3.00;3.00;;;28.30;97955.16;;;;119243;1188;25539;-70
2022/07/12 03:36:32;;;;;;;;;3.50;3.50;;;28.30;97954.83;;;;119252;1187;25304;-69
2022/07/12 03:39:00;;;;;;;;;4.00;3.00;;;28.33;97951.48;;;;119236;1187;25048;-68
2022/07/12 03:41:28;;;;;;;;;2.75;2.75;;;28.32;97945.93;;;;118983;1189;25266;-67
2022/07/12 03:43:55;;;;;;;;;4.50;3.00;;;28.32;97945.66;;;;119241;1187;25447;-67
2022/07/12 03:46:23;;;;;;;;;5.00;4.00;;;28.37;97946.20;;;;119025;1187;24774;-66
2022/07/12 03:48:51;;;;;;;;;4.00;3.25;;;28.37;97948.17;;;;119242;1186;25276;-66
2022/07/12 03:51:19;;;;;;;;;3.00;3.00;;;28.39;97952.08;;;;119251;1187;25386;-64
2022/07/12 03:53:47;;;;;;;;;6.75;5.00;;;28.44;97951.35;;;;119251;1187;26272;-67
2022/07/12 03:57:13;;;;;;;;;5.75;4.50;;;28.51;97947.70;;;;119022;1187;25252;-68
2022/07/12 03:59:03;;;;;;;;;8.50;4.00;;;28.63;97946.16;;;;119243;1186;25403;-67
2022/07/12 04:01:31;;;;;;;;;7.00;5.25;;;28.67;97943.79;;;;118975;1188;25408;-70
2022/07/12 04:03:59;;;;;;;;;7.50;5.00;;;28.85;97951.55;;;;119209;1186;24864;-76
2022/07/12 04:06:28;;;;;;;;;8.50;7.00;;;28.91;97954.82;;;;119202;1187;25487;-63
2022/07/12 04:08:55;;;;;;;;;9.75;6.50;;;28.83;97958.58;;;;119226;1186;25359;-64
2022/07/12 04:11:23;;;;;;;;;8.00;7.25;;;28.76;97959.91;;;;119208;1187;25164;-67
2022/07/12 04:13:51;;;;;;;;;9.50;6.25;;;28.75;97960.17;;;;119221;1187;25287;-64
2022/07/12 04:16:19;;;;;;;;;10.00;5.00;;;28.82;97960.67;;;;119188;1186;25485;-67
2022/07/12 04:18:47;;;;;;;;;9.75;4.25;;;28.84;97961.83;;;;119227;1187;25756;-69
2022/07/12 04:21:15;;;;;;;;;10.00;7.00;;;28.86;97962.43;;;;119216;1186;26045;-62
2022/07/12 04:23:43;;;;;;;;;8.50;7.75;;;28.87;97962.25;;;;118944;1189;25732;-62
2022/07/12 04:26:11;;;;;;;;;9.00;5.00;;;28.83;97965.37;;;;119233;1187;25704;-62
2022/07/12 04:28:39;;;;;;;;;11.25;6.75;;;28.77;97960.41;;;;119202;1188;25111;-63
2022/07/12 04:31:07;;;;;;;;;12.00;7.50;;;28.75;97963.23;;;;119214;1187;25147;-63
2022/07/12 04:33:35;;;;;;;;;8.00;7.00;;;28.75;97962.92;;;;119186;1187;25915;-62
2022/07/12 04:36:04;;;;;;;;;8.67;7.67;;;28.75;97965.35;;;;119176;1186;24937;-62
2022/07/12 04:38:32;;;;;;;;;13.00;7.25;;;28.74;97965.89;;;;119180;1187;24985;-63
2022/07/12 04:41:00;;;;;;;;;12.00;7.50;;;28.73;97966.27;;;;119194;1186;25280;-64
2022/07/12 04:43:28;;;;;;;;;11.00;4.25;;;28.74;97966.14;;;;118950;1189;25201;-63
2022/07/12 04:45:55;;;;;;;;;8.50;8.50;;;28.73;97967.54;;;;118938;1189;26008;-63
2022/07/12 04:48:23;;;;;;;;;8.75;6.75;;;28.70;97967.55;;;;119215;1188;24728;-62
2022/07/12 04:50:51;;;;;;;;;8.50;4.75;;;28.68;97968.52;;;;119221;1186;25658;-63
2022/07/12 04:53:19;;;;;;;;;6.00;5.50;;;28.70;97968.76;;;;119207;1187;25482;-63
2022/07/12 04:55:47;;;;;;;;;9.25;6.25;;;28.68;97970.02;;;;119020;1188;26043;-62
2022/07/12 04:58:15;;;;;;;;;9.25;6.00;;;28.68;97972.16;;;;119230;1186;26085;-62
2022/07/12 05:00:43;;;;;;;;;8.50;5.00;;;28.67;97969.16;;;;119251;1186;25696;-62
2022/07/12 05:03:11;;;;;;;;;7.75;6.75;;;28.67;97969.05;;;;119216;1187;24971;-62
2022/07/12 05:05:39;;;;;;;;;7.00;5.75;;;28.65;97969.09;;;;119200;1187;25191;-63
2022/07/12 05:08:07;;;;;;;;;7.67;5.33;;;28.66;97975.35;;;;119226;1186;25879;-63
2022/07/12 05:10:35;;;;;;;;;4.00;4.00;;;28.66;97973.63;;;;119226;1186;25578;-62
2022/07/12 05:13:05;;;;;;;;;7.75;4.75;;;28.68;97976.34;;;;119235;1188;25552;-62
2022/07/12 05:15:32;;;;;;;;;9.25;6.50;;;28.67;97974.58;;;;119232;1187;24941;-62
2022/07/12 05:18:00;;;;;;;;;8.25;7.50;;;28.66;97972.78;;;;119235;1187;24717;-63
2022/07/12 05:20:28;;;;;;;;;7.25;7.25;;;28.68;97975.66;;;;119229;1188;25131;-63
2022/07/12 05:22:56;;;;;;;;;10.00;6.50;;;28.68;97977.15;;;;119070;1188;25036;-62
2022/07/12 05:25:24;;;;;;;;;7.50;6.00;;;28.67;97980.35;;;;119222;1186;25241;-62
2022/07/12 05:27:52;;;;;;;;;6.50;6.50;;;28.68;97984.85;;;;119208;1187;26429;-62
2022/07/12 05:30:21;;;;;;;;;8.50;6.50;;;28.67;97980.56;;;;119232;1187;25735;-61
2022/07/12 05:32:49;;;;;;;;;8.25;7.00;;;28.68;97982.72;;;;118970;1188;26310;-62
2022/07/12 05:35:17;;;;;;;;;7.00;5.00;;;28.68;97983.17;;;;119213;1188;25901;-62
2022/07/12 05:37:45;;;;;;;;;5.00;5.00;;;28.69;97983.24;;;;119208;1186;25634;-61
2022/07/12 05:40:13;;;;;;;;;4.25;4.25;;;28.66;97980.66;;;;119221;1187;25394;-62
2022/07/12 05:42:41;;;;;;;;;6.25;6.25;;;28.67;97981.50;;;;119228;1188;25199;-62
2022/07/12 05:45:10;;;;;;;;;4.75;4.75;;;28.65;97981.23;;;;119231;1188;25306;-63
2022/07/12 05:47:38;;;;;;;;;7.00;5.00;;;28.68;97985.29;;;;119214;1187;25730;-63
2022/07/12 05:50:07;;;;;;;;;8.33;5.00;;;28.67;97986.05;;;;119211;1187;25638;-62
2022/07/12 05:55:21;;;;;;;;;6.50;6.50;;;28.69;97984.80;;;;119198;1187;25515;-64
2022/07/12 05:57:49;;;;;;;;;3.00;3.00;;;28.69;97986.08;;;;119201;1187;24708;-63
2022/07/12 06:00:17;;;;;;;;;4.00;4.00;;;28.67;97987.08;;;;119226;1188;24778;-64
2022/07/12 06:02:45;;;;;;;;;4.00;4.00;;;28.64;97987.00;;;;119222;1187;24909;-61
2022/07/12 06:05:13;;;;;;;;;3.25;3.25;;;28.66;97983.92;;;;119220;1187;25322;-61
2022/07/12 06:07:41;;;;;;;;;4.50;4.50;;;28.65;97981.86;;;;119231;1187;25919;-63
2022/07/12 06:10:09;;;;;;;;;3.25;3.00;;;28.68;97978.95;;;;119221;1187;25607;-62
2022/07/12 06:12:37;;;;;;;;;6.50;4.50;;;28.68;97975.02;;;;118981;1188;24928;-64
2022/07/12 06:15:06;;;;;;;;;7.33;4.00;;;28.67;97975.39;;;;119198;1187;24859;-63
2022/07/12 06:17:35;;;;;;;;;3.25;3.25;;;28.68;97973.09;;;;119214;1187;25684;-62
2022/07/12 06:20:03;;;;;;;;;3.25;3.25;;;28.69;97971.11;;;;119233;1188;24772;-61
2022/07/12 06:22:31;;;;;;;;;3.75;2.75;;;28.69;97970.02;;;;118993;1187;26500;-63
2022/07/12 06:24:59;;;;;;;;;4.00;4.00;;;28.71;97972.62;;;;119211;1186;26042;-63
2022/07/12 06:27:48;;;;;;;;;3.25;2.50;;;28.79;97973.73;;;;119208;1187;25066;-63
2022/07/12 06:30:20;;;;;;;;;4.00;4.00;;;28.80;97970.45;;;;119089;1190;24913;-61
2022/07/12 06:32:48;;;;;;;;;4.50;3.50;;;29.03;97972.71;;;;118998;1188;26392;-62
2022/07/12 06:35:17;;;;;;;;;3.00;3.00;;;28.97;97971.17;;;;119190;1188;25233;-62
2022/07/12 06:37:44;;;;;;;;;3.50;3.50;;;28.94;97972.95;;;;119206;1187;25400;-62
2022/07/12 06:40:16;;;;;;;;;3.75;2.00;;;28.89;97973.41;;;;118957;1189;25668;-62
2022/07/12 06:42:44;;;;;;;;;4.50;3.25;;;28.88;97970.06;;;;119207;1187;26874;-62
2022/07/12 06:45:12;;;;;;;;;3.75;2.75;;;28.86;97966.15;;;;119224;1187;24960;-61
2022/07/12 06:47:41;;;;;;;;;3.00;3.00;;;28.88;97967.74;;;;119218;1187;25805;-62
2022/07/12 06:50:09;;;;;;;;;3.00;2.00;;;28.86;97964.41;;;;119209;1187;26083;-61
2022/07/12 06:52:37;;;;;;;;;2.25;2.25;;;28.86;97964.20;;;;119222;1187;25525;-62
2022/07/12 06:55:06;;;;;;;;;3.75;2.00;;;28.85;97963.48;;;;119212;1187;25483;-65
2022/07/12 06:57:34;;;;;;;;;2.50;2.00;;;28.84;97962.77;;;;118995;1190;25105;-63
2022/07/12 07:00:04;;;;;;;;;2.00;2.00;;;28.86;97966.90;;;;118955;1189;25804;-63
2022/07/12 07:02:32;;;;;;;;;1.00;1.00;;;28.85;97966.66;;;;118960;1189;26082;-62
2022/07/12 07:05:01;;;;;;;;;1.75;1.75;;;28.84;97969.48;;;;118965;1189;24724;-63
2022/07/12 07:07:29;;;;;;;;;3.00;2.00;;;28.83;97963.65;;;;118981;1190;24912;-67
2022/07/12 07:09:56;;;;;;;;;1.75;1.50;;;28.86;97966.73;;;;118961;1190;24906;-67
2022/07/12 07:12:24;;;;;;;;;3.25;2.00;;;28.92;97967.66;;;;118916;1189;24901;-65
2022/07/12 07:14:52;;;;;;;;;2.50;2.50;;;28.94;97968.61;;;;118917;1189;25620;-64
2022/07/12 07:17:20;;;;;;;;;2.00;1.25;;;29.02;97970.40;;;;118959;1190;26385;-66
2022/07/12 07:19:47;;;;;;;;;2.00;2.00;;;29.03;97971.40;;;;118966;1189;25640;-64
2022/07/12 07:22:15;;;;;;;;;0.50;0.50;;;28.92;97973.91;;;;118960;1189;25121;-64
2022/07/12 07:24:43;;;;;;;;;1.00;1.00;;;28.83;97979.07;;;;118985;1190;25629;-63
2022/07/12 07:27:11;;;;;;;;;1.00;1.00;;;28.73;97976.16;;;;118967;1190;25580;-65
2022/07/12 07:32:26;;;;;;;;;5.50;5.00;;;28.63;97973.00;;;;118931;1189;25231;-64
2022/07/12 07:34:53;;;;;;;;;3.50;2.50;;;28.52;97971.33;;;;118921;1189;25242;-64
2022/07/12 07:37:23;;;;;;;;;3.00;3.00;;;28.48;97972.88;;;;118867;1189;25791;-65
2022/07/12 07:39:51;;;;;;;;;17.50;17.00;;;28.36;97982.44;;;;118956;1189;25091;-69
2022/07/12 07:42:19;;;;;;;;;6.25;6.00;;;28.27;97971.66;;;;118906;1189;24870;-64
2022/07/12 07:44:46;;;;;;;;;2.25;2.00;;;28.09;97975.77;;;;118959;1190;25308;-64
2022/07/12 07:47:51;;;;;;;;;0.75;0.75;;;28.10;97979.91;;;;118944;1190;25449;-70
2022/07/12 07:50:39;;;;;;;;;1.25;1.25;;;28.04;97974.30;;;;118985;1189;25530;-74
2022/07/12 07:53:07;;;;;;;;;3.00;2.00;;;28.09;97970.92;;;;118985;1190;25339;-74
2022/07/12 07:55:35;;;;;;;;;1.50;1.00;;;28.10;97965.55;;;;119041;1188;24997;-73
2022/07/12 07:58:03;;;;;;;;;1.00;1.00;;;28.12;97966.15;;;;119187;1187;25575;-70
2022/07/12 08:00:31;;;;;;;;;1.00;1.00;;;27.91;97962.80;;;;119194;1187;25122;-68
2022/07/12 08:02:59;;;;;;;;;1.00;0.00;;;27.89;97962.56;;;;119003;1188;25544;-72
2022/07/12 08:05:27;;;;;;;;;1.00;1.00;;;27.84;97967.88;;;;119175;1188;24800;-70
2022/07/12 08:07:57;;;;;;;;;2.00;1.25;;;27.81;97957.64;;;;119186;1187;25642;-72
2022/07/12 08:10:26;;;;;;;;;1.00;1.00;;;27.81;97970.45;;;;119003;1189;25349;-67
2022/07/12 08:12:54;;;;;;;;;1.25;1.25;;;27.66;97967.27;;;;119241;1187;25694;-69
2022/07/12 08:15:22;;;;;;;;;2.00;1.00;;;27.63;97968.12;;;;119218;1187;24777;-67
2022/07/12 08:17:51;;;;;;;;;1.00;1.00;;;27.59;97976.23;;;;119184;1187;24978;-69
2022/07/12 08:20:23;;;;;;;;;0.00;0.00;;;27.59;97973.94;;;;119197;1187;24840;-67
2022/07/12 08:23:11;;;;;;;;;1.00;1.00;;;27.67;97977.86;;;;119216;1188;26031;-69
2022/07/12 08:25:39;;;;;;;;;0.75;0.75;;;27.56;97975.39;;;;119230;1187;25746;-66
2022/07/12 08:28:07;;;;;;;;;1.00;0.00;;;27.48;97977.95;;;;119275;1186;25284;-66
2022/07/12 08:30:35;;;;;;;;;0.50;0.50;;;27.44;97979.17;;;;119231;1187;25455;-69
2022/07/12 08:33:11;;;;;;;;;1.75;1.00;;;27.56;97975.64;;;;119226;1187;25721;-70
2022/07/12 08:35:39;;;;;;;;;2.25;1.00;;;27.57;97978.77;;;;118968;1189;25054;-68
2022/07/12 08:38:08;;;;;;;;;1.50;1.00;;;27.60;97976.27;;;;119221;1187;25243;-69
2022/07/12 08:40:36;;;;;;;;;1.00;1.00;;;27.66;97962.74;;;;119213;1187;24905;-69
2022/07/12 08:43:04;;;;;;;;;1.00;1.00;;;27.68;97974.38;;;;118995;1189;25800;-69
2022/07/12 08:45:32;;;;;;;;;2.00;2.00;;;27.68;97976.61;;;;119126;1187;24929;-70
2022/07/12 08:48:00;;;;;;;;;1.00;1.00;;;27.78;97977.28;;;;119188;1186;25124;-70
2022/07/12 08:50:28;;;;;;;;;1.00;1.00;;;27.78;97976.83;;;;118982;1188;25271;-70
2022/07/12 08:52:56;;;;;;;;;2.00;2.00;;;27.76;97973.81;;;;119202;1188;25500;-70
2022/07/12 08:55:24;;;;;;;;;2.00;2.00;;;27.73;97972.27;;;;119222;1187;25446;-70
2022/07/12 08:57:54;;;;;;;;;1.50;1.50;;;27.77;97970.92;;;;118977;1189;25220;-70
2022/07/12 09:00:24;;;;;;;;;2.00;1.50;;;27.80;97976.41;;;;119145;1187;24963;-70
2022/07/12 09:02:57;;;;;;;;;2.00;2.00;;;27.82;97982.27;;;;119182;1187;24919;-70
2022/07/12 09:05:27;;;;;;;;;2.50;2.50;;;27.84;97976.55;;;;119169;1187;25223;-70
2022/07/12 09:08:05;;;;;;;;;3.00;3.00;;;27.86;97973.58;;;;119189;1188;25739;-69
2022/07/12 09:10:52;;;;;;;;;3.50;2.00;;;27.90;97970.14;;;;119165;1187;25248;-70
2022/07/12 09:13:21;;;;;;;;;3.00;2.00;;;28.00;97973.20;;;;118978;1189;25858;-69
2022/07/12 09:15:50;;;;;;;;;2.00;2.00;;;28.02;97972.67;;;;119185;1187;24787;-69
2022/07/12 09:18:28;;;;;;;;;2.00;2.00;;;28.02;97968.51;;;;118931;1189;24897;-68
2022/07/12 09:20:56;;;;;;;;;2.00;2.00;;;28.07;97972.25;;;;119160;1188;25235;-69
2022/07/12 09:23:24;;;;;;;;;2.67;2.67;;;28.08;97976.73;;;;119179;1187;25609;-69
2022/07/12 09:25:51;;;;;;;;;1.00;1.00;;;28.06;97973.61;;;;119197;1187;25749;-70
2022/07/12 09:28:19;;;;;;;;;2.50;1.75;;;27.99;97973.08;;;;118931;1189;24893;-70
2022/07/12 09:30:53;;;;;;;;;5.50;2.50;;;28.00;97971.50;;;;118979;1189;25198;-69
2022/07/12 09:36:07;;;;;;;;;7.00;6.50;;;28.01;97965.64;;;;119050;1187;25604;-69
2022/07/12 09:38:47;;;;;;;;;8.00;8.00;;;28.01;97974.69;;;;119182;1188;25863;-69
2022/07/12 09:41:19;;;;;;;;;2.67;2.67;;;28.01;97971.52;;;;119224;1187;25236;-70
2022/07/12 09:43:48;;;;;;;;;4.00;4.00;;;27.99;97963.10;;;;119223;1188;24837;-69
2022/07/12 09:46:17;;;;;;;;;3.00;3.00;;;28.02;97964.64;;;;119206;1187;25020;-69
2022/07/12 09:48:46;;;;;;;;;2.00;2.00;;;28.04;97956.14;;;;119213;1187;25086;-70
2022/07/12 09:51:17;;;;;;;;;4.00;3.00;;;28.09;97954.52;;;;119006;1189;24898;-69
2022/07/12 09:53:47;;;;;;;;;2.00;2.00;;;28.12;97963.11;;;;118985;1188;25202;-69
2022/07/12 09:56:17;;;;;;;;;3.00;2.50;;;28.15;97963.08;;;;118981;1189;25496;-68
2022/07/12 09:58:47;;;;;;;;;3.50;3.50;;;28.15;97964.04;;;;119213;1187;25048;-70
2022/07/12 10:01:19;;;;;;;;;2.00;2.00;;;28.14;97967.46;;;;119212;1188;25030;-70
2022/07/12 10:03:51;;;;;;;;;2.00;2.00;;;28.16;97968.37;;;;118984;1187;25840;-70
2022/07/12 10:06:30;;;;;;;;;3.00;3.00;;;28.14;97964.38;;;;119200;1188;25868;-70
2022/07/12 10:09:03;;;;;;;;;2.50;2.00;;;28.22;97966.15;;;;119216;1188;25588;-70
2022/07/12 10:11:31;;;;;;;;;1.50;1.50;;;28.19;97963.06;;;;118961;1190;25591;-70
2022/07/12 10:14:21;;;;;;;;;1.50;1.50;;;28.24;97964.59;;;;119227;1187;25395;-70
2022/07/12 10:16:54;;;;;;;;;3.00;1.75;;;28.23;97961.74;;;;119225;1187;24881;-69
2022/07/12 10:19:35;;;;;;;;;1.75;1.75;;;28.21;97962.05;;;;119182;1187;25485;-69
2022/07/12 10:22:19;;;;;;;;;1.00;1.00;;;28.22;97961.05;;;;119195;1187;25591;-69
2022/07/12 10:24:54;;;;;;;;;1.33;1.33;;;28.31;97973.73;;;;119195;1186;25111;-70
2022/07/12 10:27:24;;;;;;;;;1.75;1.75;;;28.23;97967.20;;;;118995;1188;26408;-70
2022/07/12 10:29:52;;;;;;;;;2.00;2.00;;;28.15;97959.90;;;;118951;1188;25501;-69
2022/07/12 10:32:35;;;;;;;;;2.25;1.00;;;28.10;97957.57;;;;119196;1186;24838;-69
2022/07/12 10:35:05;;;;;;;;;1.00;1.00;;;28.12;97952.27;;;;119206;1188;25684;-70
2022/07/12 10:37:35;;;;;;;;;2.50;2.50;;;28.12;97952.99;;;;119167;1187;25280;-70
2022/07/12 10:40:17;;;;;;;;;3.00;2.00;;;28.09;97959.02;;;;119200;1187;25180;-69
2022/07/12 10:43:06;;;;;;;;;2.00;2.00;;;28.11;97952.64;;;;119198;1187;24908;-69
2022/07/12 10:45:39;;;;;;;;;1.75;1.75;;;28.07;97947.56;;;;119186;1187;25000;-69
2022/07/12 10:48:08;;;;;;;;;1.00;1.00;;;28.04;97944.56;;;;118959;1189;26214;-69
2022/07/12 10:50:44;;;;;;;;;1.00;1.00;;;28.07;97938.75;;;;119001;1189;26458;-69
2022/07/12 10:53:19;;;;;;;;;1.50;1.50;;;28.06;97935.89;;;;119202;1187;24856;-69
2022/07/12 10:56:14;;;;;;;;;1.00;1.00;;;28.02;97935.69;;;;119218;1187;25814;-69
2022/07/12 10:58:44;;;;;;;;;2.00;2.00;;;28.07;97929.19;;;;119200;1187;24909;-70
2022/07/12 11:01:19;;;;;;;;;3.50;2.00;;;28.08;97924.33;;;;119218;1187;24791;-69
2022/07/12 11:03:53;;;;;;;;;0.25;0.25;;;28.13;97931.56;;;;119003;1188;25187;-70
2022/07/12 11:06:22;;;;;;;;;1.25;1.00;;;28.15;97925.45;;;;119178;1187;25411;-70
2022/07/12 11:08:58;;;;;;;;;1.50;1.00;;;28.20;97931.02;;;;118995;1189;25263;-67
2022/07/12 11:11:31;;;;;;;;;3.00;2.50;;;28.25;97929.13;;;;118995;1188;25251;-70
2022/07/12 11:14:01;;;;;;;;;2.00;2.00;;;28.32;97927.77;;;;119031;1188;25575;-68
2022/07/12 11:16:30;;;;;;;;;3.00;2.00;;;28.35;97925.17;;;;119011;1189;25393;-68
2022/07/12 11:18:58;;;;;;;;;2.00;2.00;;;28.38;97922.20;;;;119035;1189;25977;-66
2022/07/12 11:21:26;;;;;;;;;4.50;3.25;;;28.44;97924.20;;;;119021;1188;24812;-66
2022/07/12 11:23:54;;;;;;;;;2.00;2.00;;;28.43;97930.98;;;;118993;1189;25416;-74
2022/07/12 11:26:22;;;;;;;;;2.00;1.75;;;28.49;97930.27;;;;119004;1189;25748;-65
2022/07/12 11:28:51;;;;;;;;;4.75;2.50;;;28.55;97935.78;;;;119026;1188;25715;-70
2022/07/12 11:31:21;;;;;;;;;2.50;1.50;;;28.57;97932.41;;;;118994;1189;25719;-69
2022/07/12 11:33:54;;;;;;;;;2.75;2.00;;;28.62;97939.64;;;;118962;1189;25114;-77
2022/07/12 11:36:27;;;;;;;;;2.00;2.00;;;28.70;97941.55;;;;118955;1189;25292;-76
2022/07/12 11:38:55;;;;;;;;;2.00;2.00;;;28.77;97938.33;;;;118881;1189;24992;-72
2022/07/12 11:41:24;;;;;;;;;1.00;1.00;;;28.83;97937.11;;;;118965;1188;25688;-71
2022/07/12 11:43:52;;;;;;;;;3.00;2.00;;;28.87;97935.33;;;;119014;1188;25326;-73
2022/07/12 11:46:20;;;;;;;;;2.25;1.00;;;28.90;97932.15;;;;118989;1188;26162;-71
2022/07/12 11:48:48;;;;;;;;;2.25;2.25;;;28.93;97942.48;;;;119002;1188;25790;-66
2022/07/12 11:51:16;;;;;;;;;1.50;1.50;;;28.96;97938.67;;;;118962;1186;25375;-66
2022/07/12 11:53:51;;;;;;;;;2.00;2.00;;;28.98;97934.16;;;;119007;1188;25733;-65
2022/07/12 11:56:29;;;;;;;;;3.33;2.00;;;28.89;97928.92;;;;119098;1186;25117;-63
2022/07/12 11:58:57;;;;;;;;;1.25;1.25;;;29.00;97925.54;;;;119121;1187;24814;-65
2022/07/12 12:01:26;;;;;;;;;2.00;2.00;;;29.03;97927.53;;;;119102;1188;25005;-72
2022/07/12 12:03:56;;;;;;;;;2.00;1.00;;;29.05;97926.94;;;;119140;1187;25823;-68
2022/07/12 12:06:24;;;;;;;;;2.75;2.75;;;29.06;97927.25;;;;119176;1188;25009;-73
2022/07/12 12:08:52;;;;;;;;;2.00;2.00;;;29.06;97929.27;;;;119131;1187;25440;-63
2022/07/12 12:11:28;;;;;;;;;2.00;2.00;;;29.12;97929.45;;;;119175;1188;24743;-64
2022/07/12 12:13:56;;;;;;;;;2.00;2.00;;;29.19;97926.64;;;;119147;1186;25791;-66
2022/07/12 12:16:25;;;;;;;;;2.00;2.00;;;29.21;97927.60;;;;119158;1186;25056;-66
2022/07/12 12:18:53;;;;;;;;;1.75;1.75;;;29.22;97927.36;;;;119140;1188;25993;-66
2022/07/12 12:21:26;;;;;;;;;3.00;1.25;;;29.24;97928.52;;;;119111;1187;24795;-65
2022/07/12 12:24:09;;;;;;;;;2.00;2.00;;;29.29;97938.41;;;;119123;1188;24843;-64
2022/07/12 12:26:36;;;;;;;;;1.00;1.00;;;29.35;97947.90;;;;119117;1187;25537;-69
2022/07/12 12:29:05;;;;;;;;;1.75;1.75;;;29.37;97947.98;;;;118914;1189;25347;-64